Time;durP1;ratioP1;P1;durP2;ratioP2;P2;SDS_P1;SDS_P2;PMS_P1;PMS_P2;Temp;Humidity;BMP_temperature;BMP_pressure;BME280_temperature;BME280_humidity;BME280_pressure;Samples;Min_cycle;Max_cycle;Signal;HPM_P1;HPM_P2
2023/12/02 00:01:42;;;;;;;21.47;9.70;;;-0.60;99.90;;;;;;5035312;28;20083;-72
2023/12/02 00:04:10;;;;;;;22.60;9.40;;;-0.50;99.90;;;;;;5023212;28;20085;-72
2023/12/02 00:06:36;;;;;;;19.77;10.03;;;-0.50;99.90;;;;;;5034542;28;20037;-72
2023/12/02 00:09:02;;;;;;;20.93;9.43;;;-0.50;99.90;;;;;;5019800;28;20081;-72
2023/12/02 00:11:28;;;;;;;22.55;11.15;;;-0.50;99.90;;;;;;5032983;28;20079;-72
2023/12/02 00:13:54;;;;;;;25.10;10.87;;;-0.50;99.90;;;;;;5029621;28;20049;-72
2023/12/02 00:16:19;;;;;;;22.83;9.60;;;-0.50;99.90;;;;;;5040876;28;20136;-72
2023/12/02 00:18:45;;;;;;;22.37;9.77;;;-0.50;99.90;;;;;;5039675;28;20049;-72
2023/12/02 00:21:13;;;;;;;25.50;10.43;;;-0.50;99.90;;;;;;5037829;28;20140;-72
2023/12/02 00:23:39;;;;;;;24.02;10.75;;;-0.40;99.90;;;;;;5035313;28;20041;-71
2023/12/02 00:26:05;;;;;;;25.27;10.37;;;-0.50;99.90;;;;;;5036849;28;20098;-72
2023/12/02 00:28:33;;;;;;;25.03;10.67;;;-0.40;99.90;;;;;;5027369;28;20037;-72
2023/12/02 00:30:59;;;;;;;23.33;10.48;;;-0.40;99.90;;;;;;5032330;28;20328;-72
2023/12/02 00:33:25;;;;;;;24.87;10.60;;;-0.40;99.90;;;;;;5038231;28;20974;-72
2023/12/02 00:35:50;;;;;;;23.17;10.87;;;-0.40;99.90;;;;;;5042279;28;20529;-72
2023/12/02 00:38:16;;;;;;;23.33;10.03;;;-0.30;99.90;;;;;;5038219;28;20037;-72
2023/12/02 00:40:42;;;;;;;23.57;10.20;;;-0.40;99.90;;;;;;5036109;28;20262;-72
2023/12/02 00:43:12;;;;;;;26.00;11.43;;;-0.30;99.90;;;;;;5036938;28;20420;-72
2023/12/02 00:45:38;;;;;;;25.67;10.88;;;-0.30;99.90;;;;;;5031245;28;20044;-72
2023/12/02 00:48:04;;;;;;;25.05;11.40;;;-0.30;99.90;;;;;;5035286;28;20037;-71
2023/12/02 00:50:30;;;;;;;27.67;11.23;;;-0.30;99.90;;;;;;5040579;28;20132;-71
2023/12/02 00:52:56;;;;;;;24.47;11.33;;;-0.30;99.90;;;;;;5031375;28;20110;-72
2023/12/02 00:55:22;;;;;;;;;;;-0.30;99.90;;;;;;5039404;28;20403;-71
2023/12/02 00:57:48;;;;;;;22.15;10.00;;;-0.30;99.90;;;;;;5040023;28;20612;-72
2023/12/02 01:00:15;;;;;;;21.95;10.38;;;-0.30;99.90;;;;;;5034971;28;20049;-72
2023/12/02 01:02:41;;;;;;;24.45;11.13;;;-0.30;99.90;;;;;;5019119;28;20048;-72
2023/12/02 01:05:07;;;;;;;25.02;11.40;;;-0.30;99.90;;;;;;5039089;28;20604;-72
2023/12/02 01:07:33;;;;;;;25.45;10.05;;;-0.20;99.90;;;;;;5037436;28;20432;-72
2023/12/02 01:09:59;;;;;;;22.97;11.13;;;-0.20;99.90;;;;;;5036954;28;20041;-72
2023/12/02 01:12:25;;;;;;;22.97;9.60;;;-0.20;99.90;;;;;;5030534;28;20099;-72
2023/12/02 01:14:50;;;;;;;25.43;11.87;;;-0.20;99.90;;;;;;5019942;28;20041;-72
2023/12/02 01:17:16;;;;;;;22.13;10.50;;;-0.20;99.90;;;;;;5032016;28;20125;-72
2023/12/02 01:19:44;;;;;;;23.40;10.55;;;-0.10;99.90;;;;;;5017333;28;20608;-72
2023/12/02 01:22:12;;;;;;;24.30;10.32;;;-0.10;99.90;;;;;;5027716;28;20135;-73
2023/12/02 01:24:38;;;;;;;25.35;9.95;;;-0.10;99.90;;;;;;5036109;28;20552;-72
2023/12/02 01:27:04;;;;;;;27.50;10.43;;;0.00;99.90;;;;;;5034896;28;20132;-72
2023/12/02 01:29:29;;;;;;;23.50;10.45;;;0.00;99.90;;;;;;5033422;28;20256;-73
2023/12/02 01:31:55;;;;;;;24.93;11.40;;;0.00;99.90;;;;;;5035375;28;20040;-73
2023/12/02 01:34:21;;;;;;;24.73;9.93;;;0.00;99.90;;;;;;5038125;28;20052;-72
2023/12/02 01:36:47;;;;;;;26.37;10.57;;;0.00;99.90;;;;;;5033978;28;20041;-72
2023/12/02 01:39:13;;;;;;;24.77;10.53;;;0.00;99.90;;;;;;5033227;28;20080;-73
2023/12/02 01:41:39;;;;;;;22.25;10.45;;;0.00;99.90;;;;;;5032611;28;20046;-72
2023/12/02 01:44:05;;;;;;;23.67;10.40;;;0.00;99.90;;;;;;5033849;28;20120;-73
2023/12/02 01:46:31;;;;;;;25.17;11.87;;;-0.10;99.90;;;;;;5024929;28;20125;-73
2023/12/02 01:48:58;;;;;;;23.87;10.53;;;-0.10;99.90;;;;;;5029644;28;20592;-72
2023/12/02 01:51:28;;;;;;;24.50;10.95;;;-0.10;99.90;;;;;;5034368;28;20474;-72
2023/12/02 01:53:55;;;;;;;22.48;9.93;;;-0.10;99.90;;;;;;5036088;28;20452;-72
2023/12/02 01:56:21;;;;;;;25.65;11.60;;;-0.10;99.90;;;;;;5036217;28;20056;-73
2023/12/02 01:58:49;;;;;;;28.53;11.93;;;-0.10;99.90;;;;;;5035018;28;20520;-72
2023/12/02 02:01:15;;;;;;;25.38;10.80;;;-0.10;99.90;;;;;;5036002;28;20312;-73
2023/12/02 02:03:41;;;;;;;23.05;10.63;;;-0.10;99.90;;;;;;5029710;28;20049;-72
2023/12/02 02:06:13;;;;;;;26.75;11.95;;;0.00;99.90;;;;;;5036252;28;20045;-77
2023/12/02 02:08:38;;;;;;;20.10;9.55;;;0.00;99.90;;;;;;5036414;28;20306;-73
2023/12/02 02:11:04;;;;;;;22.30;11.03;;;0.00;99.90;;;;;;5034563;28;20041;-72
2023/12/02 02:13:30;;;;;;;29.27;11.83;;;0.00;99.90;;;;;;5038262;28;20594;-73
2023/12/02 02:15:56;;;;;;;26.73;10.47;;;0.00;99.90;;;;;;5034491;28;20037;-73
2023/12/02 02:18:21;;;;;;;22.53;10.23;;;0.00;99.90;;;;;;5039775;28;20045;-72
2023/12/02 02:20:52;;;;;;;22.63;10.30;;;-0.10;99.90;;;;;;5033257;28;20048;-72
2023/12/02 02:23:25;;;;;;;22.90;11.10;;;-0.10;99.90;;;;;;5032195;28;20098;-72
2023/12/02 02:25:52;;;;;;;21.45;9.95;;;-0.10;99.90;;;;;;5025297;28;20029;-70
2023/12/02 02:28:22;;;;;;;23.83;10.38;;;-0.10;99.90;;;;;;5041079;28;20131;-71
2023/12/02 02:30:48;;;;;;;20.90;9.75;;;-0.10;99.90;;;;;;5031883;28;20048;-71
2023/12/02 02:33:14;;;;;;;26.10;11.47;;;-0.10;99.90;;;;;;5035625;28;20048;-71
2023/12/02 02:35:40;;;;;;;24.67;11.63;;;-0.10;99.90;;;;;;5033180;28;20419;-72
2023/12/02 02:38:06;;;;;;;25.13;10.17;;;-0.20;99.90;;;;;;5026720;28;20286;-71
2023/12/02 02:40:31;;;;;;;22.53;10.30;;;-0.20;99.90;;;;;;5033505;28;20215;-71
2023/12/02 02:42:57;;;;;;;22.27;10.13;;;-0.20;99.90;;;;;;5028589;28;20102;-71
2023/12/02 02:45:28;;;;;;;25.97;10.83;;;-0.20;99.90;;;;;;5032527;28;20569;-71
2023/12/02 02:47:56;;;;;;;21.60;9.85;;;-0.20;99.90;;;;;;5034729;28;20080;-71
2023/12/02 02:50:21;;;;;;;29.00;10.95;;;-0.20;99.90;;;;;;5027920;28;20091;-71
2023/12/02 02:52:52;;;;;;;26.87;10.70;;;-0.20;99.90;;;;;;5033341;28;20082;-71
2023/12/02 02:55:18;;;;;;;20.45;10.23;;;-0.20;99.90;;;;;;5033075;28;20041;-71
2023/12/02 02:57:46;;;;;;;21.70;9.60;;;-0.20;99.90;;;;;;5039731;28;20562;-71
2023/12/02 03:00:12;;;;;;;24.10;10.20;;;-0.30;99.90;;;;;;5024039;28;20071;-76
2023/12/02 03:02:41;;;;;;;20.75;9.80;;;-0.30;99.90;;;;;;5029627;28;20104;-71
2023/12/02 03:05:07;;;;;;;19.38;9.65;;;-0.30;99.90;;;;;;5038088;28;20439;-71
2023/12/02 03:07:33;;;;;;;25.88;10.77;;;-0.20;99.90;;;;;;5039518;28;20090;-70
2023/12/02 03:10:00;;;;;;;23.13;11.20;;;-0.30;99.90;;;;;;5034423;28;20530;-71
2023/12/02 03:12:26;;;;;;;24.85;10.93;;;-0.30;99.90;;;;;;5035979;28;20048;-70
2023/12/02 03:14:53;;;;;;;23.50;10.95;;;-0.30;99.90;;;;;;5042273;28;20053;-71
2023/12/02 03:17:19;;;;;;;21.65;10.32;;;-0.30;99.90;;;;;;5032955;28;20414;-71
2023/12/02 03:19:46;;;;;;;25.27;10.57;;;-0.30;99.90;;;;;;5035453;28;20317;-70
2023/12/02 03:22:12;;;;;;;22.98;10.07;;;-0.30;99.90;;;;;;5044426;28;20301;-70
2023/12/02 03:24:37;;;;;;;25.97;10.60;;;-0.30;99.90;;;;;;5036038;28;20033;-71
2023/12/02 03:27:03;;;;;;;22.80;10.43;;;-0.30;99.90;;;;;;5037725;28;20036;-70
2023/12/02 03:29:31;;;;;;;30.10;11.18;;;-0.30;99.90;;;;;;5031585;28;20041;-70
2023/12/02 03:32:00;;;;;;;23.92;11.32;;;-0.30;99.90;;;;;;5034331;28;20041;-70
2023/12/02 03:34:25;;;;;;;27.63;12.15;;;-0.30;99.90;;;;;;5033482;28;20052;-70
2023/12/02 03:36:51;;;;;;;26.60;10.67;;;-0.30;99.90;;;;;;5039302;28;20110;-70
2023/12/02 03:39:19;;;;;;;24.70;10.87;;;-0.30;99.90;;;;;;5037748;28;20524;-70
2023/12/02 03:41:48;;;;;;;23.08;11.00;;;-0.30;99.90;;;;;;5033053;28;20202;-69
2023/12/02 03:44:14;;;;;;;25.75;11.38;;;-0.30;99.90;;;;;;5038256;28;20301;-70
2023/12/02 03:46:40;;;;;;;22.80;10.17;;;-0.30;99.90;;;;;;5028423;28;20040;-70
2023/12/02 03:49:08;;;;;;;24.07;11.13;;;-0.40;99.90;;;;;;5038875;28;20404;-70
2023/12/02 03:51:37;;;;;;;25.38;9.95;;;-0.40;99.90;;;;;;5039331;28;20078;-70
2023/12/02 03:54:02;;;;;;;23.40;11.35;;;-0.40;99.90;;;;;;5040207;28;20082;-70
2023/12/02 03:56:28;;;;;;;26.70;10.33;;;-0.40;99.90;;;;;;5046946;28;20036;-69
2023/12/02 03:58:55;;;;;;;24.13;9.80;;;-0.40;99.90;;;;;;5038415;28;20041;-70
2023/12/02 04:01:21;;;;;;;23.58;9.93;;;-0.40;99.90;;;;;;5025935;28;20191;-70
2023/12/02 04:03:47;;;;;;;;;;;-0.40;99.90;;;;;;5046027;28;20515;-69
2023/12/02 04:06:17;;;;;;;20.02;8.82;;;-0.40;99.90;;;;;;5049658;28;19924;-70
2023/12/02 04:08:43;;;;;;;20.35;9.50;;;-0.40;99.90;;;;;;5026333;28;20036;-70
2023/12/02 04:11:09;;;;;;;22.83;10.60;;;-0.40;99.90;;;;;;5042349;28;20462;-70
2023/12/02 04:13:35;;;;;;;22.40;9.67;;;-0.40;99.90;;;;;;5044905;28;20053;-70
2023/12/02 04:16:04;;;;;;;23.23;9.77;;;-0.40;99.90;;;;;;5046913;28;20059;-70
2023/12/02 04:18:31;;;;;;;23.48;11.35;;;-0.40;99.90;;;;;;5040404;28;20132;-69
2023/12/02 04:20:57;;;;;;;23.83;10.60;;;-0.40;99.90;;;;;;5042406;28;20132;-70
2023/12/02 04:23:22;;;;;;;24.57;10.70;;;-0.40;99.90;;;;;;5048350;28;20052;-70
2023/12/02 04:25:48;;;;;;;23.90;10.03;;;-0.40;99.90;;;;;;5036056;28;20041;-70
2023/12/02 04:28:14;;;;;;;26.27;11.10;;;-0.30;99.90;;;;;;5041021;28;20039;-70
2023/12/02 04:30:42;;;;;;;25.57;10.63;;;-0.40;99.90;;;;;;5044404;28;20037;-70
2023/12/02 04:33:10;;;;;;;30.60;10.13;;;-0.30;99.90;;;;;;5041765;28;20052;-70
2023/12/02 04:35:36;;;;;;;24.02;10.75;;;-0.40;99.90;;;;;;5040307;28;20053;-69
2023/12/02 04:38:04;;;;;;;24.45;10.30;;;-0.30;99.90;;;;;;5039639;28;20049;-70
2023/12/02 04:40:33;;;;;;;20.70;10.05;;;-0.40;99.90;;;;;;5041625;28;20564;-70
2023/12/02 04:42:59;;;;;;;26.10;11.52;;;-0.40;99.90;;;;;;5047789;28;20513;-69
2023/12/02 04:45:25;;;;;;;27.13;10.70;;;-0.40;99.90;;;;;;5036989;28;20301;-69
2023/12/02 04:47:52;;;;;;;23.97;10.20;;;-0.40;99.90;;;;;;5034299;28;20047;-69
2023/12/02 04:50:18;;;;;;;28.92;11.85;;;-0.40;99.90;;;;;;5044495;28;20049;-70
2023/12/02 04:52:46;;;;;;;20.53;10.60;;;-0.40;99.90;;;;;;5044011;28;20932;-69
2023/12/02 04:55:12;;;;;;;22.88;10.93;;;-0.40;99.90;;;;;;5041584;28;20044;-70
2023/12/02 04:57:38;;;;;;;21.80;10.67;;;-0.40;99.90;;;;;;5038206;28;20046;-70
2023/12/02 05:00:13;;;;;;;25.63;9.77;;;-0.40;99.90;;;;;;5038459;28;20048;-70
2023/12/02 05:02:42;;;;;;;23.63;10.45;;;-0.40;99.90;;;;;;5038104;28;20071;-70
2023/12/02 05:05:12;;;;;;;22.15;10.07;;;-0.40;99.90;;;;;;5039864;28;20476;-70
2023/12/02 05:07:41;;;;;;;26.63;10.43;;;-0.40;99.90;;;;;;5040656;28;20126;-70
2023/12/02 05:10:07;;;;;;;32.53;10.45;;;-0.40;99.90;;;;;;5040164;28;20462;-70
2023/12/02 05:12:32;;;;;;;24.98;10.48;;;-0.40;99.90;;;;;;5039404;28;20099;-70
2023/12/02 05:14:58;;;;;;;25.37;10.33;;;-0.40;99.90;;;;;;5040101;28;20044;-70
2023/12/02 05:17:24;;;;;;;22.13;11.10;;;-0.40;99.90;;;;;;5040251;28;20037;-69
2023/12/02 05:19:50;;;;;;;25.37;10.20;;;-0.40;99.90;;;;;;5036335;28;20497;-70
2023/12/02 05:22:15;;;;;;;23.20;10.20;;;-0.40;99.90;;;;;;5052532;28;20068;-69
2023/12/02 05:24:41;;;;;;;23.83;10.23;;;-0.40;99.90;;;;;;5040502;28;20059;-69
2023/12/02 05:27:07;;;;;;;23.67;10.90;;;-0.40;99.90;;;;;;5043067;28;20513;-70
2023/12/02 05:29:33;;;;;;;26.73;11.18;;;-0.40;99.90;;;;;;5039003;28;20037;-70
2023/12/02 05:32:02;;;;;;;27.42;11.20;;;-0.40;99.90;;;;;;5035390;28;20092;-70
2023/12/02 05:34:30;;;;;;;25.23;11.07;;;-0.40;99.90;;;;;;5039041;28;20071;-69
2023/12/02 05:36:58;;;;;;;27.10;11.45;;;-0.40;99.90;;;;;;5024586;28;20063;-69
2023/12/02 05:39:26;;;;;;;28.70;10.90;;;-0.40;99.90;;;;;;5038127;28;20112;-69
2023/12/02 05:41:52;;;;;;;24.23;9.73;;;-0.40;99.90;;;;;;5033494;28;20044;-69
2023/12/02 05:44:19;;;;;;;23.60;9.27;;;-0.40;99.90;;;;;;5035547;28;20429;-69
2023/12/02 05:46:44;;;;;;;26.77;10.45;;;-0.40;99.90;;;;;;5036404;28;21742;-70
2023/12/02 05:49:13;;;;;;;23.95;10.65;;;-0.40;99.90;;;;;;5038320;28;20578;-70
2023/12/02 05:51:39;;;;;;;25.70;12.10;;;-0.40;99.90;;;;;;5035277;28;20119;-69
2023/12/02 05:54:13;;;;;;;26.27;11.05;;;-0.40;99.90;;;;;;5035165;28;20049;-69
2023/12/02 05:56:41;;;;;;;24.63;11.05;;;-0.40;99.90;;;;;;5035726;28;20068;-70
2023/12/02 05:59:09;;;;;;;25.25;11.55;;;-0.40;99.90;;;;;;5037414;28;20056;-70
2023/12/02 06:01:38;;;;;;;25.88;10.60;;;-0.30;99.90;;;;;;5034181;28;20041;-70
2023/12/02 06:04:04;;;;;;;22.83;10.63;;;-0.40;99.90;;;;;;5023194;28;20037;-70
2023/12/02 06:06:29;;;;;;;29.20;11.80;;;-0.40;99.90;;;;;;5035499;28;20044;-70
2023/12/02 06:08:55;;;;;;;26.70;12.17;;;-0.40;99.90;;;;;;5020325;28;20043;-70
2023/12/02 06:11:21;;;;;;;29.13;11.83;;;-0.40;99.90;;;;;;5033643;28;20509;-69
2023/12/02 06:13:49;;;;;;;30.20;11.47;;;-0.40;99.90;;;;;;5042431;28;20033;-70
2023/12/02 06:16:17;;;;;;;25.85;11.50;;;-0.40;99.90;;;;;;5036830;28;20040;-70
2023/12/02 06:18:43;;;;;;;25.40;10.10;;;-0.40;99.90;;;;;;5040157;28;20059;-70
2023/12/02 06:21:13;;;;;;;28.83;10.40;;;-0.40;99.90;;;;;;5034526;28;20034;-70
2023/12/02 06:23:39;;;;;;;27.52;12.32;;;-0.40;99.90;;;;;;5039122;28;20038;-70
2023/12/02 06:26:05;;;;;;;27.00;12.02;;;-0.30;99.90;;;;;;5034883;28;20060;-70
2023/12/02 06:28:30;;;;;;;29.98;12.35;;;-0.40;99.90;;;;;;5040398;28;20048;-69
2023/12/02 06:30:57;;;;;;;29.43;11.87;;;-0.40;99.90;;;;;;5040245;28;20087;-70
2023/12/02 06:33:26;;;;;;;30.30;12.00;;;-0.30;99.90;;;;;;5036786;28;20033;-70
2023/12/02 06:35:51;;;;;;;25.65;11.02;;;-0.30;99.90;;;;;;5038638;28;20047;-70
2023/12/02 06:38:17;;;;;;;29.10;11.93;;;-0.30;99.90;;;;;;5043935;28;20623;-72
2023/12/02 06:40:43;;;;;;;22.83;10.67;;;-0.30;99.90;;;;;;5031025;28;20036;-71
2023/12/02 06:43:11;;;;;;;29.50;11.57;;;-0.20;99.90;;;;;;5038630;28;20057;-71
2023/12/02 06:45:37;;;;;;;27.80;11.68;;;-0.30;99.90;;;;;;5035859;28;20425;-69
2023/12/02 06:48:03;;;;;;;28.87;13.37;;;-0.30;99.90;;;;;;5033519;28;20045;-72
2023/12/02 06:50:28;;;;;;;27.70;12.98;;;-0.30;99.90;;;;;;5036562;28;20037;-72
2023/12/02 06:52:54;;;;;;;26.13;11.73;;;-0.30;99.90;;;;;;5034499;28;20053;-72
2023/12/02 06:55:19;;;;;;;29.17;12.13;;;-0.20;99.90;;;;;;5037458;28;20122;-71
2023/12/02 06:57:48;;;;;;;25.83;10.73;;;-0.20;99.90;;;;;;5040461;28;20068;-72
2023/12/02 07:00:15;;;;;;;25.45;10.65;;;-0.20;99.90;;;;;;5021677;28;20037;-72
2023/12/02 07:02:41;;;;;;;28.20;11.88;;;-0.20;99.90;;;;;;5021233;28;20056;-72
2023/12/02 07:05:08;;;;;;;29.58;12.00;;;-0.20;99.90;;;;;;5038733;28;20198;-72
2023/12/02 07:07:36;;;;;;;27.85;10.40;;;-0.20;99.90;;;;;;5035130;28;20052;-72
2023/12/02 07:10:02;;;;;;;27.33;11.30;;;-0.20;99.90;;;;;;5022292;28;20751;-72
2023/12/02 07:12:28;;;;;;;28.17;11.45;;;-0.20;99.90;;;;;;5038009;28;20045;-72
2023/12/02 07:14:59;;;;;;;29.88;13.25;;;-0.20;99.90;;;;;;5033039;28;20087;-71
2023/12/02 07:17:25;;;;;;;29.58;12.05;;;-0.20;99.90;;;;;;5038877;28;20178;-71
2023/12/02 07:19:50;;;;;;;28.57;12.33;;;-0.20;99.90;;;;;;5019955;28;20127;-72
2023/12/02 07:22:18;;;;;;;25.33;10.63;;;-0.10;99.90;;;;;;5032749;28;20061;-72
2023/12/02 07:24:44;;;;;;;28.25;11.88;;;-0.10;99.90;;;;;;5038057;28;20057;-70
2023/12/02 07:27:13;;;;;;;26.47;11.20;;;-0.10;99.90;;;;;;5034960;28;20661;-72
2023/12/02 07:29:38;;;;;;;26.83;11.95;;;-0.10;99.90;;;;;;5035130;28;20037;-72
2023/12/02 07:32:07;;;;;;;30.83;12.80;;;-0.10;99.90;;;;;;5035584;28;20045;-72
2023/12/02 07:34:35;;;;;;;29.38;12.00;;;-0.10;99.90;;;;;;5039322;28;20041;-72
2023/12/02 07:37:04;;;;;;;29.75;12.77;;;-0.10;99.90;;;;;;5039212;28;20033;-72
2023/12/02 07:39:32;;;;;;;29.13;13.67;;;0.00;99.90;;;;;;5036959;28;20515;-72
2023/12/02 07:41:57;;;;;;;30.08;12.77;;;0.00;99.90;;;;;;5038148;28;20091;-72
2023/12/02 07:44:23;;;;;;;27.97;11.83;;;0.00;99.90;;;;;;5037330;28;20041;-72
2023/12/02 07:46:49;;;;;;;29.63;12.87;;;0.00;99.90;;;;;;5025059;28;20045;-72
2023/12/02 07:49:17;;;;;;;31.50;12.77;;;0.00;99.90;;;;;;5040892;28;20033;-72
2023/12/02 07:51:43;;;;;;;26.58;12.43;;;0.00;99.90;;;;;;5036749;28;20157;-70
2023/12/02 07:54:10;;;;;;;28.50;12.03;;;0.00;99.90;;;;;;5036804;28;20501;-70
2023/12/02 07:56:37;;;;;;;35.35;13.43;;;0.10;99.90;;;;;;5028137;28;20500;-70
2023/12/02 07:59:03;;;;;;;26.08;12.07;;;0.10;99.90;;;;;;5037578;28;20057;-70
2023/12/02 08:01:34;;;;;;;34.38;12.48;;;0.10;99.90;;;;;;5038152;28;20047;-70
2023/12/02 08:04:00;;;;;;;30.25;12.60;;;0.10;99.90;;;;;;5037928;28;20045;-70
2023/12/02 08:06:26;;;;;;;27.97;11.90;;;0.10;99.90;;;;;;5037762;28;20052;-70
2023/12/02 08:08:53;;;;;;;27.80;12.37;;;0.10;99.90;;;;;;5033991;28;20041;-70
2023/12/02 08:11:19;;;;;;;27.67;11.15;;;0.10;99.90;;;;;;5033370;28;20036;-70
2023/12/02 08:13:45;;;;;;;29.27;12.63;;;0.10;99.90;;;;;;5018216;28;20048;-70
2023/12/02 08:16:11;;;;;;;26.83;11.87;;;0.20;99.90;;;;;;5039419;28;20044;-70
2023/12/02 08:18:39;;;;;;;27.17;12.47;;;0.20;99.90;;;;;;5036582;28;20048;-70
2023/12/02 08:21:10;;;;;;;27.50;12.15;;;0.20;99.90;;;;;;5036883;28;20976;-70
2023/12/02 08:23:39;;;;;;;30.30;13.45;;;0.20;99.90;;;;;;5031575;28;20083;-70
2023/12/02 08:26:05;;;;;;;29.35;11.80;;;0.30;99.90;;;;;;5043696;28;20438;-70
2023/12/02 08:28:33;;;;;;;30.70;12.13;;;0.30;99.90;;;;;;5037033;28;20087;-70
2023/12/02 08:30:59;;;;;;;26.13;11.03;;;0.30;99.90;;;;;;5038104;28;20491;-72
2023/12/02 08:33:25;;;;;;;30.30;12.00;;;0.40;99.90;;;;;;5037364;28;20100;-70
2023/12/02 08:35:50;;;;;;;28.57;12.30;;;0.40;99.90;;;;;;5019575;28;20041;-70
2023/12/02 08:38:19;;;;;;;28.97;11.63;;;0.50;99.90;;;;;;5045073;28;20041;-70
2023/12/02 08:40:45;;;;;;;30.60;12.77;;;0.50;99.90;;;;;;5044393;28;20127;-70
2023/12/02 08:43:10;;;;;;;33.33;13.67;;;0.50;99.90;;;;;;5044441;28;20136;-70
2023/12/02 08:45:36;;;;;;;22.93;10.83;;;0.50;99.90;;;;;;5039557;28;20037;-70
2023/12/02 08:48:02;;;;;;;32.93;13.47;;;0.50;99.90;;;;;;5037501;28;20048;-70
2023/12/02 08:50:27;;;;;;;27.43;12.20;;;0.50;99.90;;;;;;5038848;28;20033;-70
2023/12/02 08:52:53;;;;;;;30.73;12.17;;;0.50;99.90;;;;;;5040621;28;20090;-77
2023/12/02 08:55:19;;;;;;;30.93;11.50;;;0.60;99.90;;;;;;5040521;28;20084;-70
2023/12/02 08:57:45;;;;;;;27.60;11.40;;;0.60;99.90;;;;;;5038884;28;20560;-70
2023/12/02 09:00:11;;;;;;;25.27;11.60;;;0.60;99.90;;;;;;5037393;28;20048;-70
2023/12/02 09:02:40;;;;;;;30.08;11.77;;;0.60;99.90;;;;;;5034667;28;20579;-70
2023/12/02 09:05:08;;;;;;;23.58;10.30;;;0.70;99.90;;;;;;5037858;28;20272;-70
2023/12/02 09:07:34;;;;;;;30.75;12.70;;;0.70;99.90;;;;;;5023784;28;20061;-70
2023/12/02 09:10:01;;;;;;;26.27;11.87;;;0.70;99.90;;;;;;5040323;28;20441;-70
2023/12/02 09:12:26;;;;;;;22.80;10.65;;;0.70;99.90;;;;;;5034200;28;20084;-70
2023/12/02 09:15:29;;;;;;;24.30;11.23;;;0.80;99.90;;;;;;5042871;28;20073;-70
2023/12/02 09:18:07;;;;;;;26.42;11.50;;;0.80;99.90;;;;;;5037747;28;20583;-70
2023/12/02 09:20:55;;;;;;;28.20;10.93;;;0.80;99.90;;;;;;5023034;28;20064;-70
2023/12/02 09:23:29;;;;;;;26.92;12.05;;;0.80;99.90;;;;;;5036689;28;20045;-70
2023/12/02 09:26:01;;;;;;;26.33;11.63;;;0.90;99.90;;;;;;5019058;28;20064;-70
2023/12/02 09:28:30;;;;;;;26.88;10.95;;;0.90;99.90;;;;;;5037631;28;20139;-71
2023/12/02 09:31:05;;;;;;;25.88;10.82;;;0.90;99.90;;;;;;5031201;28;20049;-70
2023/12/02 09:33:31;;;;;;;28.75;11.23;;;1.00;99.90;;;;;;5036711;28;20048;-70
2023/12/02 09:35:59;;;;;;;24.92;11.20;;;1.00;99.90;;;;;;5035150;28;20056;-70
2023/12/02 09:38:26;;;;;;;24.75;10.50;;;1.00;99.90;;;;;;5042704;28;20072;-70
2023/12/02 09:41:33;;;;;;;23.88;10.65;;;1.10;99.90;;;;;;5031653;28;20037;-71
2023/12/02 09:44:20;;;;;;;23.58;9.63;;;1.10;99.90;;;;;;5012847;28;20053;-70
2023/12/02 09:47:21;;;;;;;29.52;11.20;;;1.20;99.90;;;;;;5032540;28;20106;-70
2023/12/02 09:50:29;;;;;;;19.65;9.30;;;1.20;99.90;;;;;;5026025;28;20045;-70
2023/12/02 09:53:03;;;;;;;25.65;9.23;;;1.20;99.90;;;;;;5044171;28;20053;-70
2023/12/02 09:55:36;;;;;;;24.13;9.73;;;1.30;99.90;;;;;;5034911;28;20191;-70
2023/12/02 09:58:23;;;;;;;25.00;10.63;;;1.30;99.90;;;;;;5014093;28;20296;-70
2023/12/02 10:01:02;;;;;;;21.83;9.52;;;1.40;99.90;;;;;;5011565;28;20040;-70
2023/12/02 10:03:49;;;;;;;23.77;10.25;;;1.40;99.90;;;;;;5034695;28;20513;-70
2023/12/02 10:06:34;;;;;;;20.98;10.05;;;1.50;99.90;;;;;;5034515;28;20084;-69
2023/12/02 10:09:12;;;;;;;23.20;9.68;;;1.60;99.90;;;;;;5032520;28;20052;-70
2023/12/02 10:11:51;;;;;;;21.92;9.20;;;1.60;99.90;;;;;;5026848;28;20048;-70
2023/12/02 10:14:21;;;;;;;22.08;9.93;;;1.70;99.90;;;;;;5034132;28;20528;-70
2023/12/02 10:16:50;;;;;;;19.38;8.65;;;1.70;99.90;;;;;;5034591;28;20040;-70
2023/12/02 10:19:33;;;;;;;17.98;8.63;;;1.80;99.90;;;;;;5018706;28;20048;-70
2023/12/02 10:22:03;;;;;;;19.55;8.05;;;1.90;99.90;;;;;;5033235;28;20413;-70
2023/12/02 10:24:42;;;;;;;21.08;8.45;;;1.90;99.90;;;;;;5032926;28;20033;-70
2023/12/02 10:27:17;;;;;;;17.17;7.78;;;2.00;99.90;;;;;;5033979;28;20167;-70
2023/12/02 10:30:18;;;;;;;13.85;6.00;;;2.00;99.90;;;;;;5026734;28;20037;-70
2023/12/02 10:33:05;;;;;;;17.70;6.78;;;2.00;99.90;;;;;;5042246;28;20355;-70
2023/12/02 10:35:59;;;;;;;14.15;7.05;;;2.10;99.90;;;;;;5036239;28;20045;-70
2023/12/02 10:38:36;;;;;;;15.77;6.45;;;2.10;99.90;;;;;;5051000;28;20115;-70
2023/12/02 10:41:14;;;;;;;12.90;6.10;;;2.20;99.90;;;;;;5031435;28;20049;-71
2023/12/02 10:43:44;;;;;;;17.77;6.05;;;2.20;99.90;;;;;;5044526;28;20219;-70
2023/12/02 10:46:14;;;;;;;14.45;6.60;;;2.20;99.90;;;;;;5036970;28;20290;-71
2023/12/02 10:48:40;;;;;;;13.35;5.88;;;2.30;99.90;;;;;;5036409;28;20409;-70
2023/12/02 10:51:10;;;;;;;11.40;5.60;;;2.30;99.90;;;;;;5037080;28;20040;-70
2023/12/02 10:53:41;;;;;;;13.70;5.85;;;2.40;99.90;;;;;;5041876;28;20115;-71
2023/12/02 10:56:16;;;;;;;13.52;5.65;;;2.40;99.90;;;;;;5044016;28;20093;-71
2023/12/02 10:58:47;;;;;;;20.88;6.38;;;2.50;99.90;;;;;;5032896;28;20052;-71
2023/12/02 11:01:18;;;;;;;18.08;6.80;;;2.50;99.90;;;;;;5036097;28;20044;-71
2023/12/02 11:03:50;;;;;;;14.73;6.45;;;2.60;99.90;;;;;;5035735;28;20055;-71
2023/12/02 11:06:34;;;;;;;13.18;6.10;;;2.60;99.90;;;;;;5042629;28;20063;-71
2023/12/02 11:09:16;;;;;;;13.27;6.55;;;2.70;99.90;;;;;;5039707;28;20037;-70
2023/12/02 11:11:46;;;;;;;12.88;5.07;;;2.70;99.90;;;;;;5029468;28;20528;-71
2023/12/02 11:14:18;;;;;;;10.52;5.18;;;2.80;99.90;;;;;;5038733;28;20041;-71
2023/12/02 11:17:06;;;;;;;10.32;5.05;;;2.80;99.90;;;;;;5033115;28;20094;-71
2023/12/02 11:20:06;;;;;;;11.27;5.32;;;2.80;99.90;;;;;;5023306;28;20139;-71
2023/12/02 11:22:52;;;;;;;13.88;6.50;;;2.90;99.90;;;;;;5030237;28;20535;-71
2023/12/02 11:25:39;;;;;;;11.80;5.07;;;2.90;99.90;;;;;;5036768;28;20039;-71
2023/12/02 11:28:39;;;;;;;10.05;5.30;;;2.90;99.90;;;;;;5031524;28;20037;-72
2023/12/02 11:31:18;;;;;;;10.63;4.97;;;3.00;99.90;;;;;;5036503;28;20041;-71
2023/12/02 11:34:22;;;;;;;9.18;5.30;;;3.00;99.90;;;;;;5030607;28;20055;-72
2023/12/02 11:37:13;;;;;;;9.23;4.65;;;3.00;99.90;;;;;;5032496;28;20060;-71
2023/12/02 11:40:01;;;;;;;11.25;5.20;;;3.10;99.90;;;;;;5030648;28;20324;-71
2023/12/02 11:42:36;;;;;;;12.80;5.13;;;3.10;99.90;;;;;;5029149;28;20139;-71
2023/12/02 11:45:17;;;;;;;9.45;4.70;;;3.10;99.90;;;;;;5029509;28;20045;-71
2023/12/02 11:48:02;;;;;;;8.82;4.88;;;3.20;99.90;;;;;;5030394;28;20339;-71
2023/12/02 11:50:46;;;;;;;10.18;4.70;;;3.20;99.90;;;;;;5032696;28;20056;-71
2023/12/02 11:53:24;;;;;;;8.30;4.43;;;3.20;99.90;;;;;;5028704;28;20053;-72
2023/12/02 11:55:58;;;;;;;7.57;3.97;;;3.30;99.90;;;;;;5016749;28;20044;-72
2023/12/02 11:58:33;;;;;;;9.73;4.43;;;3.30;99.90;;;;;;5014156;28;20116;-72
2023/12/02 12:01:09;;;;;;;6.70;3.47;;;3.30;99.90;;;;;;5028205;28;20690;-72
2023/12/02 12:03:53;;;;;;;7.35;3.65;;;3.40;99.90;;;;;;5026089;28;20148;-72
2023/12/02 12:06:59;;;;;;;7.75;3.70;;;3.40;99.90;;;;;;5031757;28;20422;-72
2023/12/02 12:09:46;;;;;;;6.68;2.97;;;3.40;99.90;;;;;;5033109;28;20052;-72
2023/12/02 12:12:13;;;;;;;;;;;3.40;99.90;;;;;;5035174;28;20098;-71
2023/12/02 12:14:41;;;;;;;6.68;2.85;;;3.40;99.90;;;;;;5039004;28;19966;-72
2023/12/02 12:17:07;;;;;;;7.13;2.80;;;3.40;99.90;;;;;;5018549;28;20060;-72
2023/12/02 12:19:35;;;;;;;7.40;3.47;;;3.40;99.90;;;;;;5037202;28;20484;-72
2023/12/02 12:22:01;;;;;;;5.30;2.67;;;3.40;99.90;;;;;;5032575;28;20041;-71
2023/12/02 12:24:32;;;;;;;10.05;2.25;;;3.40;99.90;;;;;;5036215;28;20062;-72
2023/12/02 12:26:57;;;;;;;7.35;2.50;;;3.40;99.90;;;;;;5039674;28;20040;-72
2023/12/02 12:29:23;;;;;;;5.80;2.50;;;3.40;99.90;;;;;;5037139;28;20159;-72
2023/12/02 12:31:54;;;;;;;7.90;2.60;;;3.50;99.90;;;;;;5037513;28;20037;-72
2023/12/02 12:34:20;;;;;;;4.85;2.00;;;3.50;99.90;;;;;;5034189;28;20099;-72
2023/12/02 12:36:46;;;;;;;5.15;2.53;;;3.50;99.90;;;;;;5039174;28;20131;-72
2023/12/02 12:39:14;;;;;;;4.87;2.17;;;3.50;99.90;;;;;;5038060;28;20143;-72
2023/12/02 12:41:42;;;;;;;9.38;2.80;;;3.50;99.90;;;;;;5032948;28;20175;-71
2023/12/02 12:44:08;;;;;;;5.03;2.50;;;3.50;99.90;;;;;;5035801;28;20139;-72
2023/12/02 12:46:34;;;;;;;4.38;2.53;;;3.50;99.90;;;;;;5036987;28;20045;-72
2023/12/02 12:49:04;;;;;;;7.97;2.30;;;3.50;99.90;;;;;;5034754;28;20052;-72